GCGO weather

San Sebastián De La Gomera Heliport
La Gomera Island, Canary Islands, Spain

Public forecast

Using degrees Celsius for public forecast. Weather courtesy of forecast.io.

Closest aviation weather report (METAR) to San Sebastián De La Gomera Heliport

Closest report is La Gomera Airport, 7.2 nm (13.3 km) SW. Retrieved 2019/12/16 12:30 UTC (3 minutes ago):

GCGM 161230Z VRB06KT 9999 FEW030 21/09 Q1016 RMK R09/VRB07G18KT ARP/VRB03KT

Closest aviation forecast (TAF) to San Sebastián De La Gomera Heliport

Closest forecast is La Gomera Airport, 7.2 nm (13.3 km) SW. Retrieved 2019/12/16 09:00 UTC (4 hours ago):

TAF GCGM 160800Z 1609/1709 32009KT 9999 FEW025 TX21/1614Z TN17/1706Z PROB30 TEMPO 1609/1618 34015G25KT